createdAt,value
2023-01-21T00:02:56.738Z,81.07
2023-01-21T00:08:01.812Z,80.86
2023-01-21T00:13:06.822Z,80.31
2023-01-21T00:18:09.699Z,80.88
2023-01-21T00:23:12.940Z,80.88
2023-01-21T00:28:17.019Z,80.82
2023-01-21T00:33:19.780Z,80.53
2023-01-21T00:38:22.505Z,80.89
2023-01-21T00:43:26.669Z,81.08
2023-01-21T00:48:29.457Z,80.83
2023-01-21T00:53:34.793Z,80.97
2023-01-21T00:58:39.341Z,80.84
2023-01-21T01:03:42.679Z,80.91
2023-01-21T01:08:46.217Z,80.65
2023-01-21T01:13:50.324Z,80.99
2023-01-21T01:18:53.452Z,80.64
2023-01-21T01:24:00.525Z,80.73
2023-01-21T01:29:05.648Z,80.75
2023-01-21T01:34:08.491Z,81.42
2023-01-21T01:39:11.296Z,80.90
2023-01-21T01:44:51.668Z,81.22
2023-01-21T01:49:56.215Z,81.61
2023-01-21T01:55:00.982Z,81.10
2023-01-21T02:00:05.928Z,80.94
2023-01-21T02:05:14.524Z,80.88
2023-01-21T02:10:21.361Z,81.04
2023-01-21T02:15:29.332Z,80.82
2023-01-21T02:21:16.574Z,80.90
2023-01-21T02:26:54.856Z,81.66
2023-01-21T02:32:11.909Z,81.07
2023-01-21T02:37:18.772Z,81.25
2023-01-21T02:42:25.846Z,81.24
2023-01-21T02:47:31.445Z,81.62
2023-01-21T02:52:35.662Z,81.24
2023-01-21T02:57:44.707Z,81.04
2023-01-21T03:03:20.112Z,81.36
2023-01-21T03:08:30.348Z,81.43
2023-01-21T03:13:53.082Z,81.04
2023-01-21T03:18:56.772Z,81.69
2023-01-21T03:24:01.101Z,80.82
2023-01-21T03:29:07.544Z,81.58
2023-01-21T03:34:12.875Z,81.33
2023-01-21T03:39:19.718Z,81.66
2023-01-21T03:44:22.601Z,81.31
2023-01-21T03:49:29.761Z,81.52
2023-01-21T03:54:34.015Z,81.38
2023-01-21T03:59:36.755Z,80.82
2023-01-21T04:04:39.584Z,81.08
2023-01-21T04:09:43.895Z,81.03
2023-01-21T04:14:46.646Z,81.25
2023-01-21T04:19:49.396Z,81.53
2023-01-21T04:24:53.464Z,81.40
2023-01-21T04:29:56.185Z,81.43
2023-01-21T04:34:58.864Z,81.03
2023-01-21T04:40:03.206Z,81.04
2023-01-21T04:45:07.236Z,81.53
2023-01-21T04:50:11.525Z,81.27
2023-01-21T04:55:15.664Z,81.27
2023-01-21T05:00:19.366Z,81.44
2023-01-21T05:05:22.188Z,81.00
2023-01-21T05:10:26.385Z,81.50
2023-01-21T05:15:29.305Z,81.20
2023-01-21T05:20:32.225Z,81.64
2023-01-21T05:25:36.349Z,81.97
2023-01-21T05:30:41.027Z,81.59
2023-01-21T05:35:44.516Z,81.57
2023-01-21T05:40:48.691Z,81.54
2023-01-21T05:45:51.419Z,81.93
2023-01-21T05:50:54.912Z,81.29
2023-01-21T05:55:59.920Z,81.47
2023-01-21T06:01:02.650Z,81.36
2023-01-21T06:06:05.937Z,81.83
2023-01-21T06:11:10.061Z,82.25
2023-01-21T06:16:12.861Z,81.59
2023-01-21T06:21:15.578Z,81.91
2023-01-21T06:26:19.754Z,81.77
2023-01-21T06:31:22.576Z,82.23
2023-01-21T06:36:25.508Z,81.73
2023-01-21T06:41:29.641Z,81.67
2023-01-21T06:46:32.404Z,81.92
2023-01-21T06:51:35.149Z,81.63
2023-01-21T06:56:40.987Z,82.16
2023-01-21T07:01:43.705Z,81.73
2023-01-21T07:06:46.435Z,82.19
2023-01-21T07:11:50.644Z,81.98
2023-01-21T07:16:53.559Z,81.63
2023-01-21T07:21:56.322Z,82.09
2023-01-21T07:27:00.366Z,81.72
2023-01-21T07:32:03.226Z,81.65
2023-01-21T07:37:05.947Z,81.84
2023-01-21T07:42:10.790Z,81.57
2023-01-21T07:47:13.529Z,81.45
2023-01-21T07:52:16.227Z,81.45
2023-01-21T07:57:20.443Z,81.63
2023-01-21T08:02:23.472Z,81.63
2023-01-21T08:07:26.251Z,81.98
2023-01-21T08:12:30.412Z,81.44
2023-01-21T08:17:33.106Z,81.68
2023-01-21T08:22:35.792Z,81.36
2023-01-21T08:27:39.865Z,81.79
2023-01-21T08:32:42.606Z,81.83
2023-01-21T08:37:45.370Z,81.53
2023-01-21T08:42:49.473Z,81.80
2023-01-21T08:47:52.176Z,81.51
2023-01-21T08:52:56.081Z,81.53
2023-01-21T08:58:00.827Z,81.29
2023-01-21T09:03:03.848Z,80.69
2023-01-21T09:08:06.726Z,81.03
2023-01-21T09:13:11.912Z,81.01
2023-01-21T09:18:14.654Z,80.45
2023-01-21T09:23:27.600Z,80.77
2023-01-21T09:28:33.069Z,79.89
2023-01-21T09:33:37.645Z,80.32
2023-01-21T09:38:42.648Z,79.63
2023-01-21T09:43:48.995Z,79.80
2023-01-21T09:48:52.008Z,79.73
2023-01-21T09:53:57.211Z,79.75
2023-01-21T09:59:05.409Z,79.79
2023-01-21T10:04:29.304Z,80.24
2023-01-21T10:09:43.503Z,80.00
2023-01-21T10:15:10.271Z,79.54
2023-01-21T10:20:15.666Z,79.65
2023-01-21T10:25:21.321Z,79.37
2023-01-21T10:30:28.848Z,79.38
2023-01-21T10:35:43.578Z,79.43
2023-01-21T10:40:49.991Z,78.67
2023-01-21T10:45:59.041Z,79.16
2023-01-21T10:51:06.155Z,79.03
2023-01-21T10:56:17.331Z,79.23
2023-01-21T11:01:24.277Z,78.88
2023-01-21T11:06:27.301Z,79.34
2023-01-21T11:11:32.142Z,79.27
2023-01-21T11:16:42.907Z,79.13
2023-01-21T11:22:04.035Z,78.81
2023-01-21T11:27:06.755Z,79.21
2023-01-21T11:32:18.453Z,79.33
2023-01-21T11:37:24.466Z,79.05
2023-01-21T11:42:27.755Z,78.54
2023-01-21T11:47:37.973Z,78.65
2023-01-21T11:52:40.837Z,78.80
2023-01-21T11:57:46.999Z,79.12
2023-01-21T12:02:53.147Z,78.29
2023-01-21T12:07:56.668Z,78.62
2023-01-21T12:13:15.597Z,78.04
2023-01-21T12:18:30.039Z,77.93
2023-01-21T12:23:49.132Z,78.27
2023-01-21T12:29:03.505Z,78.79
2023-01-21T12:34:12.782Z,78.85
2023-01-21T12:39:20.973Z,78.35
2023-01-21T12:44:28.846Z,78.25
2023-01-21T12:49:50.031Z,78.05
2023-01-21T12:54:58.783Z,78.60
2023-01-21T13:00:05.340Z,78.37
2023-01-21T13:05:14.180Z,78.33
2023-01-21T13:10:20.606Z,78.48
2023-01-21T13:15:26.440Z,78.65
2023-01-21T13:20:31.752Z,77.96
2023-01-21T13:25:42.197Z,78.29
2023-01-21T13:30:49.527Z,78.15
2023-01-21T13:36:01.379Z,78.27
2023-01-21T13:41:15.070Z,78.55
2023-01-21T13:46:26.950Z,78.82
2023-01-21T13:51:45.093Z,78.51
2023-01-21T13:57:03.790Z,78.21
2023-01-21T14:02:09.889Z,78.10
2023-01-21T14:07:17.576Z,78.33
2023-01-21T14:12:24.122Z,78.50
2023-01-21T14:17:45.704Z,78.47
2023-01-21T14:23:00.966Z,78.38
2023-01-21T14:28:09.985Z,79.22
2023-01-21T14:33:15.853Z,79.16
2023-01-21T14:38:27.543Z,79.11
2023-01-21T14:43:49.170Z,79.22
2023-01-21T14:49:00.137Z,79.13
2023-01-21T14:54:05.799Z,79.19
2023-01-21T14:59:26.232Z,78.67
2023-01-21T15:04:30.419Z,79.17
2023-01-21T15:09:37.198Z,79.21
2023-01-21T15:14:41.772Z,79.53
2023-01-21T15:19:44.634Z,79.59
2023-01-21T15:25:19.081Z,79.87
2023-01-21T15:30:29.735Z,80.67
2023-01-21T15:35:34.681Z,80.42
2023-01-21T15:40:41.362Z,81.03
2023-01-21T15:45:50.819Z,81.55
2023-01-21T15:50:58.029Z,81.44
2023-01-21T15:56:14.633Z,82.54
2023-01-21T16:01:23.437Z,83.12
2023-01-21T16:06:30.735Z,82.89
2023-01-21T16:11:46.212Z,83.70
2023-01-21T16:16:57.222Z,83.34
2023-01-21T16:22:02.214Z,83.87
2023-01-21T16:27:20.179Z,84.23
2023-01-21T16:32:22.970Z,84.43
2023-01-21T16:37:27.152Z,84.54
2023-01-21T16:42:44.247Z,85.62
2023-01-21T16:47:47.932Z,85.69
2023-01-21T16:52:51.093Z,86.04
2023-01-21T16:57:56.758Z,87.16
2023-01-21T17:03:00.508Z,87.43
2023-01-21T17:08:04.972Z,87.87
2023-01-21T17:13:15.847Z,88.76
2023-01-21T17:18:20.943Z,89.59
2023-01-21T17:23:26.602Z,89.70
2023-01-21T17:28:32.794Z,89.99
2023-01-21T17:33:35.628Z,90.74
2023-01-21T17:38:42.875Z,91.06
2023-01-21T17:43:50.036Z,91.75
2023-01-21T17:48:54.841Z,91.87
2023-01-21T17:53:59.875Z,92.14
2023-01-21T17:59:04.629Z,92.60
2023-01-21T18:04:07.320Z,93.84
2023-01-21T18:09:11.419Z,93.91
2023-01-21T18:14:17.353Z,94.40
2023-01-21T18:19:38.625Z,94.93
2023-01-21T18:24:41.431Z,95.57
2023-01-21T18:29:45.733Z,95.77
2023-01-21T18:34:48.567Z,96.18
2023-01-21T18:39:51.354Z,96.68
2023-01-21T18:44:55.385Z,96.73
2023-01-21T18:50:02.832Z,98.15
2023-01-21T18:55:07.129Z,97.84
2023-01-21T19:00:19.152Z,98.91
2023-01-21T19:05:22.522Z,98.74
2023-01-21T19:10:25.301Z,99.05
2023-01-21T19:15:29.837Z,99.71
2023-01-21T19:20:32.645Z,99.78
2023-01-21T19:25:35.364Z,100.00
2023-01-21T19:30:44.932Z,100.00
2023-01-21T19:35:47.800Z,100.00
2023-01-21T19:40:50.747Z,100.00
2023-01-21T19:45:55.780Z,100.00
2023-01-21T19:50:58.640Z,100.00
2023-01-21T19:56:02.567Z,100.00
2023-01-21T20:01:06.703Z,100.00
2023-01-21T20:06:11.306Z,100.00
2023-01-21T20:11:14.048Z,100.00
2023-01-21T20:16:20.884Z,100.00
2023-01-21T20:21:23.757Z,100.00
2023-01-21T20:26:28.483Z,100.00
2023-01-21T20:31:33.027Z,100.00
2023-01-21T20:36:36.823Z,100.00
2023-01-21T20:41:40.826Z,100.00
2023-01-21T20:46:45.753Z,100.00
2023-01-21T20:51:48.543Z,100.00
2023-01-21T20:56:51.306Z,100.00
2023-01-21T21:01:56.038Z,100.00
2023-01-21T21:06:58.819Z,100.00
2023-01-21T21:12:01.711Z,100.00
2023-01-21T21:17:06.779Z,100.00
2023-01-21T21:22:09.715Z,100.00
2023-01-21T21:27:13.390Z,100.00
2023-01-21T21:32:17.647Z,100.00
2023-01-21T21:37:20.407Z,100.00
2023-01-21T21:42:40.808Z,100.00
2023-01-21T21:48:02.614Z,100.00
2023-01-21T21:53:05.451Z,100.00
2023-01-21T21:58:08.190Z,100.00
2023-01-21T22:03:13.807Z,100.00
2023-01-21T22:08:16.635Z,100.00
2023-01-21T22:13:19.445Z,100.00
2023-01-21T22:18:23.635Z,100.00
2023-01-21T22:23:26.319Z,100.00
2023-01-21T22:28:29.384Z,100.00
2023-01-21T22:33:33.763Z,100.00
2023-01-21T22:38:40.307Z,100.00
2023-01-21T22:43:44.729Z,100.00
2023-01-21T22:48:49.133Z,100.00
2023-01-21T22:53:52.080Z,100.00
2023-01-21T22:58:54.979Z,100.00
2023-01-21T23:04:00.031Z,100.00
2023-01-21T23:09:02.847Z,100.00
2023-01-21T23:14:05.572Z,100.00
2023-01-21T23:19:09.604Z,100.00
2023-01-21T23:24:12.416Z,100.00
2023-01-21T23:29:15.068Z,100.00
2023-01-21T23:34:22.599Z,100.00
2023-01-21T23:39:25.475Z,100.00
2023-01-21T23:44:28.194Z,100.00
2023-01-21T23:49:32.592Z,100.00
2023-01-21T23:54:35.386Z,100.00
2023-01-21T23:59:38.194Z,100.00
